createdAt,value
2019-05-11T00:00:59.372Z,91.37
2019-05-11T00:03:29.799Z,98.75
2019-05-11T00:06:00.436Z,87.92
2019-05-11T00:08:30.776Z,93.20
2019-05-11T00:11:01.026Z,92.22
2019-05-11T00:13:31.280Z,85.45
2019-05-11T00:16:01.506Z,85.38
2019-05-11T00:18:31.794Z,87.40
2019-05-11T00:21:02.058Z,91.60
2019-05-11T00:23:33.534Z,85.40
2019-05-11T00:26:03.756Z,84.90
2019-05-11T00:28:34.065Z,86.30
2019-05-11T00:31:04.281Z,81.28
2019-05-11T00:33:34.511Z,83.82
2019-05-11T00:36:04.756Z,85.57
2019-05-11T00:38:34.973Z,84.28
2019-05-11T00:41:05.322Z,81.15
2019-05-11T00:43:35.593Z,81.60
2019-05-11T00:46:06.186Z,84.87
2019-05-11T00:48:36.831Z,77.37
2019-05-11T00:51:07.583Z,83.97
2019-05-11T00:53:37.967Z,82.65
2019-05-11T00:56:08.163Z,80.80
2019-05-11T00:58:38.472Z,79.62
2019-05-11T01:01:09.032Z,79.40
2019-05-11T01:03:39.469Z,80.28
2019-05-11T01:06:09.631Z,78.78
2019-05-11T01:08:39.853Z,74.58
2019-05-11T01:11:10.129Z,73.87
2019-05-11T01:13:40.376Z,80.15
2019-05-11T01:16:10.770Z,80.45
2019-05-11T01:18:41.329Z,78.62
2019-05-11T01:21:12.711Z,75.10
2019-05-11T01:23:42.932Z,77.95
2019-05-11T01:26:13.216Z,75.83
2019-05-11T01:28:43.448Z,80.45
2019-05-11T01:31:13.692Z,74.92
2019-05-11T01:33:43.966Z,75.80
2019-05-11T01:36:14.279Z,73.20
2019-05-11T01:38:44.557Z,74.90
2019-05-11T01:41:14.803Z,70.42
2019-05-11T01:43:45.101Z,69.82
2019-05-11T01:46:15.328Z,68.00
2019-05-11T01:48:45.553Z,70.65
2019-05-11T01:51:15.798Z,68.50
2019-05-11T01:53:48.138Z,71.00
2019-05-11T01:56:18.408Z,72.62
2019-05-11T01:58:48.610Z,73.22
2019-05-11T02:01:18.904Z,76.00
2019-05-11T02:03:49.491Z,73.52
2019-05-11T02:06:20.160Z,77.45
2019-05-11T02:08:50.801Z,76.25
2019-05-11T02:11:21.884Z,74.72
2019-05-11T02:13:52.179Z,77.32
2019-05-11T02:16:22.429Z,72.95
2019-05-11T02:18:52.643Z,79.27
2019-05-11T02:21:22.890Z,74.32
2019-05-11T02:23:53.124Z,74.75
2019-05-11T02:26:23.353Z,80.50
2019-05-11T02:28:53.615Z,77.42
2019-05-11T02:31:23.834Z,74.87
2019-05-11T02:33:54.057Z,76.22
2019-05-11T02:36:24.645Z,76.42
2019-05-11T02:38:54.926Z,75.57
2019-05-11T02:41:35.661Z,74.67
2019-05-11T02:43:57.187Z,74.95
2019-05-11T02:46:27.488Z,71.30
2019-05-11T02:48:57.697Z,73.45
2019-05-11T02:51:29.514Z,73.92
2019-05-11T02:54:01.703Z,71.50
2019-05-11T02:56:31.938Z,76.35
2019-05-11T02:59:02.344Z,72.58
2019-05-11T03:01:32.666Z,75.25
2019-05-11T03:04:02.911Z,73.62
2019-05-11T03:06:33.164Z,68.40
2019-05-11T03:09:03.487Z,73.97
2019-05-11T03:11:33.726Z,70.60
2019-05-11T03:14:04.370Z,65.75
2019-05-11T03:16:35.057Z,71.92
2019-05-11T03:19:05.325Z,70.78
2019-05-11T03:21:35.594Z,70.83
2019-05-11T03:24:06.938Z,73.37
2019-05-11T03:26:37.519Z,74.32
2019-05-11T03:29:11.021Z,67.80
2019-05-11T03:31:41.681Z,61.43
2019-05-11T03:34:33.801Z,61.63
2019-05-11T03:36:56.712Z,62.98
2019-05-11T03:39:30.229Z,58.85
2019-05-11T03:42:13.857Z,62.33
2019-05-11T03:44:32.914Z,55.65
2019-05-11T03:47:03.146Z,57.25
2019-05-11T03:49:33.366Z,47.13
2019-05-11T03:52:03.655Z,46.18
2019-05-11T03:54:34.243Z,51.40
2019-05-11T03:57:04.543Z,43.42
2019-05-11T03:59:37.633Z,45.03
2019-05-11T04:02:08.295Z,45.17
2019-05-11T04:04:38.587Z,43.78
2019-05-11T04:07:09.160Z,43.25
2019-05-11T04:09:39.839Z,40.10
2019-05-11T04:12:33.311Z,41.60
2019-05-11T04:14:49.006Z,43.35
2019-05-11T04:17:21.312Z,38.30
2019-05-11T04:19:52.688Z,36.80
2019-05-11T04:22:23.321Z,37.88
2019-05-11T04:24:53.853Z,34.67
2019-05-11T04:27:24.616Z,40.20
2019-05-11T04:29:55.842Z,37.75
2019-05-11T04:32:26.065Z,34.05
2019-05-11T04:34:56.661Z,32.78
2019-05-11T04:37:27.357Z,31.37
2019-05-11T04:39:57.648Z,34.60
2019-05-11T04:42:27.942Z,39.83
2019-05-11T04:44:58.230Z,32.13
2019-05-11T04:47:28.469Z,30.15
2019-05-11T04:49:58.754Z,30.62
2019-05-11T04:52:28.990Z,31.95
2019-05-11T04:54:59.222Z,31.23
2019-05-11T04:57:29.881Z,30.02
2019-05-11T05:00:00.577Z,29.45
2019-05-11T05:02:31.245Z,30.20
2019-05-11T05:05:01.528Z,32.75
2019-05-11T05:07:31.887Z,31.52
2019-05-11T05:10:02.103Z,32.35
2019-05-11T05:12:33.292Z,31.90
2019-05-11T05:15:04.560Z,32.17
2019-05-11T05:17:34.873Z,32.35
2019-05-11T05:20:07.245Z,33.88
2019-05-11T05:22:37.911Z,34.60
2019-05-11T05:25:09.387Z,30.02
2019-05-11T05:27:39.674Z,32.40
2019-05-11T05:30:10.519Z,31.35
2019-05-11T05:32:44.240Z,31.20
2019-05-11T05:35:14.680Z,26.50
2019-05-11T05:37:44.920Z,26.42
2019-05-11T05:40:16.946Z,26.12
2019-05-11T05:42:47.406Z,24.05
2019-05-11T05:45:17.805Z,25.82
2019-05-11T05:47:48.025Z,24.90
2019-05-11T05:50:18.410Z,25.50
2019-05-11T05:52:50.129Z,23.85
2019-05-11T05:55:20.368Z,23.62
2019-05-11T05:57:50.936Z,24.37
2019-05-11T06:00:22.013Z,21.15
2019-05-11T06:02:52.334Z,21.48
2019-05-11T06:05:22.592Z,24.18
2019-05-11T06:07:52.854Z,25.23
2019-05-11T06:10:23.441Z,26.68
2019-05-11T06:12:54.106Z,21.87
2019-05-11T06:15:24.821Z,22.65
2019-05-11T06:17:55.548Z,24.23
2019-05-11T06:20:26.196Z,28.50
2019-05-11T06:22:56.531Z,22.85
2019-05-11T06:25:27.121Z,30.80
2019-05-11T06:27:57.424Z,31.48
2019-05-11T06:30:27.647Z,36.23
2019-05-11T06:32:58.349Z,31.60
2019-05-11T06:35:28.688Z,36.13
2019-05-11T06:37:59.023Z,35.08
2019-05-11T06:40:29.325Z,37.38
2019-05-11T06:42:59.609Z,42.23
2019-05-11T06:45:30.206Z,37.78
2019-05-11T06:48:00.638Z,33.88
2019-05-11T06:50:31.291Z,33.05
2019-05-11T06:53:01.695Z,31.12
2019-05-11T06:55:32.042Z,22.42
2019-05-11T06:58:02.680Z,22.35
2019-05-11T07:00:33.010Z,22.32
2019-05-11T07:03:04.898Z,23.02
2019-05-11T07:05:35.205Z,18.48
2019-05-11T07:08:05.491Z,21.93
2019-05-11T07:10:35.730Z,24.18
2019-05-11T07:13:05.986Z,20.70
2019-05-11T07:15:36.837Z,19.02
2019-05-11T07:18:07.536Z,21.48
2019-05-11T07:20:50.168Z,20.23
2019-05-11T07:23:10.545Z,19.98
2019-05-11T07:25:40.870Z,19.75
2019-05-11T07:28:11.106Z,17.67
2019-05-11T07:30:41.754Z,17.42
2019-05-11T07:33:12.394Z,17.52
2019-05-11T07:35:42.913Z,15.85
2019-05-11T07:38:13.331Z,16.27
2019-05-11T07:40:47.655Z,14.68
2019-05-11T07:43:18.961Z,14.93
2019-05-11T07:45:49.447Z,14.30
2019-05-11T07:48:20.091Z,14.33
2019-05-11T07:50:50.569Z,13.15
2019-05-11T07:53:24.155Z,12.07
2019-05-11T07:55:54.531Z,10.93
2019-05-11T07:58:24.827Z,11.33
2019-05-11T08:00:58.492Z,12.10
2019-05-11T08:03:28.786Z,13.28
2019-05-11T08:06:02.649Z,13.65
2019-05-11T08:08:30.985Z,11.57
2019-05-11T08:11:01.635Z,13.22
2019-05-11T08:13:32.585Z,13.65
2019-05-11T08:16:03.443Z,12.47
2019-05-11T08:18:34.034Z,14.35
2019-05-11T08:21:17.872Z,10.55
2019-05-11T08:26:47.985Z,9.00
2019-05-11T08:29:18.653Z,10.03
2019-05-11T08:31:49.801Z,13.10
2019-05-11T08:34:20.118Z,10.80
2019-05-11T08:36:50.716Z,8.50
2019-05-11T08:39:22.718Z,10.03
2019-05-11T08:41:53.599Z,12.03
2019-05-11T08:44:24.326Z,7.40
2019-05-11T08:46:54.627Z,7.60
2019-05-11T08:49:25.218Z,6.87
2019-05-11T08:51:57.631Z,9.60
2019-05-11T08:54:28.882Z,7.37
2019-05-11T08:57:00.897Z,8.38
2019-05-11T08:59:32.254Z,6.25
2019-05-11T09:02:03.462Z,7.70
2019-05-11T09:04:33.673Z,7.85
2019-05-11T09:07:03.926Z,8.40
2019-05-11T09:09:34.162Z,8.98
2019-05-11T09:12:04.983Z,8.33
2019-05-11T09:14:35.633Z,8.48
2019-05-11T09:17:07.837Z,7.30
2019-05-11T09:19:38.923Z,6.95
2019-05-11T09:22:09.853Z,10.18
2019-05-11T09:24:40.509Z,9.20
2019-05-11T09:27:12.419Z,12.20
2019-05-11T09:29:43.024Z,8.58
2019-05-11T09:32:13.294Z,10.90
2019-05-11T09:34:43.594Z,8.63
2019-05-11T09:37:13.815Z,9.40
2019-05-11T09:39:47.735Z,8.85
2019-05-11T09:42:18.125Z,9.80
2019-05-11T09:44:49.407Z,9.50
2019-05-11T09:47:19.821Z,9.65
2019-05-11T09:49:51.081Z,12.23
2019-05-11T09:52:21.665Z,11.78
2019-05-11T09:54:53.889Z,9.80
2019-05-11T09:57:24.772Z,10.90
2019-05-11T09:59:55.063Z,9.43
2019-05-11T10:02:27.394Z,10.48
2019-05-11T10:05:00.227Z,10.23
2019-05-11T10:07:32.685Z,15.43
2019-05-11T10:10:03.807Z,14.87
2019-05-11T10:12:34.145Z,14.68
2019-05-11T10:15:10.867Z,9.68
2019-05-11T10:17:45.354Z,14.07
2019-05-11T10:20:18.309Z,11.00
2019-05-11T10:22:51.365Z,13.08
2019-05-11T10:25:22.719Z,13.65
2019-05-11T10:27:53.451Z,15.58
2019-05-11T10:30:24.391Z,15.15
2019-05-11T10:32:55.096Z,15.15
2019-05-11T10:35:25.390Z,16.75
2019-05-11T10:37:58.144Z,16.00
2019-05-11T10:40:28.292Z,14.80
2019-05-11T10:42:59.584Z,14.55
2019-05-11T10:45:30.089Z,19.75
2019-05-11T10:48:01.245Z,21.50
2019-05-11T10:50:31.979Z,17.57
2019-05-11T10:53:02.238Z,17.00
2019-05-11T10:55:32.849Z,17.42
2019-05-11T10:58:04.905Z,18.55
2019-05-11T11:00:35.563Z,16.30
2019-05-11T11:03:08.298Z,18.05
2019-05-11T11:05:38.665Z,16.57
2019-05-11T11:08:09.588Z,17.17
2019-05-11T11:10:39.906Z,19.42
2019-05-11T11:13:10.171Z,15.58
2019-05-11T11:15:40.401Z,16.23
2019-05-11T11:18:11.039Z,17.62
2019-05-11T11:20:41.614Z,16.50
2019-05-11T11:23:12.380Z,17.55
2019-05-11T11:25:42.742Z,18.67
2019-05-11T11:28:13.394Z,17.37
2019-05-11T11:30:43.712Z,19.73
2019-05-11T11:33:13.933Z,22.25
2019-05-11T11:35:44.248Z,22.98
2019-05-11T11:38:14.847Z,21.77
2019-05-11T11:40:45.214Z,22.25
2019-05-11T11:43:17.899Z,23.57
2019-05-11T11:45:48.505Z,21.62
2019-05-11T11:48:19.605Z,20.50
2019-05-11T11:50:50.269Z,26.33
2019-05-11T11:53:20.963Z,24.72
2019-05-11T11:55:51.237Z,20.80
2019-05-11T11:58:23.881Z,19.55
2019-05-11T12:00:54.243Z,25.50
2019-05-11T12:03:27.685Z,26.42
2019-05-11T12:05:58.876Z,26.45
2019-05-11T12:08:29.660Z,28.12
2019-05-11T12:11:01.132Z,28.17
2019-05-11T12:13:31.424Z,24.57
2019-05-11T12:16:02.064Z,25.55
2019-05-11T12:18:32.795Z,26.15
2019-05-11T12:21:10.143Z,25.68
2019-05-11T12:23:42.335Z,23.62
2019-05-11T12:26:13.058Z,23.95
2019-05-11T12:28:43.712Z,26.10
2019-05-11T12:31:14.348Z,22.65
2019-05-11T12:33:45.148Z,22.02
2019-05-11T12:36:18.481Z,22.40
2019-05-11T12:38:48.904Z,21.52
2019-05-11T12:41:19.496Z,20.75
2019-05-11T12:43:50.116Z,22.77
2019-05-11T12:46:20.426Z,18.80
2019-05-11T12:48:51.179Z,22.00
2019-05-11T12:51:21.607Z,16.20
2019-05-11T12:53:51.893Z,16.70
2019-05-11T12:56:22.610Z,18.12
2019-05-11T12:58:53.195Z,19.75
2019-05-11T13:01:23.641Z,17.52
2019-05-11T13:03:58.089Z,20.77
2019-05-11T13:06:30.724Z,17.00
2019-05-11T13:09:01.362Z,17.40
2019-05-11T13:11:33.663Z,15.85
2019-05-11T13:14:14.103Z,21.60
2019-05-11T13:16:48.140Z,15.15
2019-05-11T13:19:18.250Z,14.15
2019-05-11T13:21:50.463Z,15.63
2019-05-11T13:24:20.822Z,14.47
2019-05-11T13:26:52.316Z,14.38
2019-05-11T13:29:23.162Z,14.75
2019-05-11T13:31:53.576Z,14.63
2019-05-11T13:34:31.205Z,15.58
2019-05-11T13:36:59.253Z,15.40
2019-05-11T13:39:29.840Z,13.98
2019-05-11T13:42:00.665Z,17.90
2019-05-11T13:44:32.947Z,16.45
2019-05-11T13:47:08.422Z,17.62
2019-05-11T13:49:47.928Z,15.58
2019-05-11T13:52:19.069Z,14.53
2019-05-11T13:54:51.380Z,15.78
2019-05-11T13:57:57.806Z,15.38
2019-05-11T14:00:10.103Z,13.10
2019-05-11T14:02:43.569Z,13.35
2019-05-11T14:05:14.648Z,15.83
2019-05-11T14:07:44.956Z,14.78
2019-05-11T14:10:17.396Z,17.70
2019-05-11T14:13:11.136Z,19.05
2019-05-11T14:15:37.672Z,15.95
2019-05-11T14:18:09.343Z,14.95
2019-05-11T14:20:38.914Z,13.35
2019-05-11T14:23:09.525Z,13.98
2019-05-11T14:25:40.230Z,14.10
2019-05-11T14:28:12.808Z,16.95
2019-05-11T14:30:48.444Z,19.23
2019-05-11T14:33:18.285Z,13.28
2019-05-11T14:35:49.063Z,13.50
2019-05-11T14:38:25.122Z,13.62
2019-05-11T14:40:55.860Z,15.83
2019-05-11T14:43:27.849Z,16.67
2019-05-11T14:45:58.396Z,12.23
2019-05-11T14:48:30.985Z,11.85
2019-05-11T14:51:01.626Z,13.15
2019-05-11T14:53:47.918Z,14.30
2019-05-11T14:56:22.284Z,17.10
2019-05-11T14:58:54.373Z,18.05
2019-05-11T15:01:25.658Z,12.37
2019-05-11T15:03:58.725Z,18.45
2019-05-11T15:06:32.087Z,14.90
2019-05-11T15:09:02.578Z,13.25
2019-05-11T15:11:33.187Z,12.82
2019-05-11T15:14:04.980Z,12.18
2019-05-11T15:16:38.161Z,14.95
2019-05-11T15:19:09.932Z,14.40
2019-05-11T15:21:40.674Z,11.78
2019-05-11T15:24:10.980Z,11.53
2019-05-11T15:26:41.555Z,16.90
2019-05-11T15:29:11.883Z,13.58
2019-05-11T15:31:42.206Z,10.45
2019-05-11T15:34:13.828Z,11.38
2019-05-11T15:36:44.380Z,12.58
2019-05-11T15:39:14.756Z,10.93
2019-05-11T15:41:45.388Z,14.15
2019-05-11T15:44:18.320Z,12.78
2019-05-11T15:46:52.607Z,9.95
2019-05-11T15:49:23.255Z,9.40
2019-05-11T15:51:53.653Z,10.35
2019-05-11T15:54:24.242Z,11.53
2019-05-11T15:56:54.648Z,9.28
2019-05-11T15:59:25.382Z,9.65
2019-05-11T16:01:58.153Z,18.40
2019-05-11T16:04:28.478Z,11.80
2019-05-11T16:07:02.422Z,12.00
2019-05-11T16:09:33.905Z,12.30
2019-05-11T16:12:04.625Z,9.60
2019-05-11T16:14:35.002Z,9.98
2019-05-11T16:17:05.221Z,10.20
2019-05-11T16:19:38.045Z,11.20
2019-05-11T16:22:10.051Z,10.13
2019-05-11T16:24:40.502Z,13.95
2019-05-11T16:27:11.925Z,14.10
2019-05-11T16:29:42.525Z,9.45
2019-05-11T16:32:13.250Z,10.15
2019-05-11T16:34:44.669Z,8.25
2019-05-11T16:37:15.327Z,10.25
2019-05-11T16:39:49.396Z,11.48
2019-05-11T16:42:19.313Z,8.00
2019-05-11T16:44:49.936Z,10.95
2019-05-11T16:47:20.227Z,13.28
2019-05-11T16:49:50.600Z,8.90
2019-05-11T16:52:21.149Z,9.88
2019-05-11T16:54:51.533Z,8.60
2019-05-11T16:57:21.759Z,12.37
2019-05-11T16:59:52.354Z,11.00
2019-05-11T17:02:23.412Z,12.88
2019-05-11T17:04:53.664Z,10.25
2019-05-11T17:07:24.296Z,9.50
2019-05-11T17:09:55.055Z,10.55
2019-05-11T17:12:28.547Z,10.48
2019-05-11T17:14:59.426Z,11.83
2019-05-11T17:17:30.057Z,13.28
2019-05-11T17:20:00.720Z,11.45
2019-05-11T17:22:31.474Z,14.73
2019-05-11T17:25:01.767Z,9.55
2019-05-11T17:27:33.339Z,16.37
2019-05-11T17:30:08.657Z,12.65
2019-05-11T17:32:39.172Z,14.70
2019-05-11T17:35:09.593Z,13.48
2019-05-11T17:37:40.850Z,11.68
2019-05-11T17:40:12.354Z,12.50
2019-05-11T17:42:43.014Z,11.78
2019-05-11T17:45:13.997Z,11.18
2019-05-11T17:47:45.681Z,14.98
2019-05-11T17:50:18.842Z,13.93
2019-05-11T17:52:49.943Z,9.23
2019-05-11T17:55:20.227Z,10.38
2019-05-11T17:57:53.908Z,10.50
2019-05-11T18:00:23.517Z,12.98
2019-05-11T18:02:54.181Z,18.92
2019-05-11T18:05:24.813Z,13.60
2019-05-11T18:07:55.353Z,12.33
2019-05-11T18:10:25.589Z,16.95
2019-05-11T18:12:57.801Z,13.78
2019-05-11T18:15:28.250Z,11.08
2019-05-11T18:18:00.492Z,13.45
2019-05-11T18:20:31.310Z,10.88
2019-05-11T18:23:01.683Z,17.02
2019-05-11T18:25:32.040Z,14.80
2019-05-11T18:28:03.838Z,14.68
2019-05-11T18:30:34.057Z,14.45
2019-05-11T18:33:04.733Z,15.10
2019-05-11T18:35:35.486Z,17.87
2019-05-11T18:38:08.541Z,15.30
2019-05-11T18:40:38.887Z,17.02
2019-05-11T18:43:09.587Z,12.68
2019-05-11T18:45:40.227Z,15.10
2019-05-11T18:48:10.895Z,13.95
2019-05-11T18:50:41.695Z,31.87
2019-05-11T18:53:12.354Z,32.15
2019-05-11T18:55:43.028Z,29.92
2019-05-11T18:58:13.741Z,43.00
2019-05-11T19:00:44.434Z,34.08
2019-05-11T19:03:15.121Z,58.10
2019-05-11T19:05:48.035Z,57.43
2019-05-11T19:08:19.016Z,46.05
2019-05-11T19:10:49.524Z,84.87
2019-05-11T19:13:20.170Z,76.87
2019-05-11T19:15:50.892Z,87.47
2019-05-11T19:18:21.201Z,65.92
2019-05-11T19:20:51.804Z,51.28
2019-05-11T19:23:22.596Z,54.38
2019-05-11T19:25:53.282Z,53.38
2019-05-11T19:28:23.981Z,49.25
2019-05-11T19:30:54.830Z,54.85
2019-05-11T19:33:27.658Z,38.02
2019-05-11T19:35:58.640Z,45.43
2019-05-11T19:38:29.347Z,46.37
2019-05-11T19:41:01.278Z,56.92
2019-05-11T19:43:31.581Z,58.65
2019-05-11T19:46:02.045Z,58.50
2019-05-11T19:48:32.686Z,73.33
2019-05-11T19:51:07.723Z,73.22
2019-05-11T19:53:34.940Z,85.10
2019-05-11T19:56:07.706Z,73.90
2019-05-11T19:58:41.477Z,83.82
2019-05-11T20:01:11.774Z,113.88
2019-05-11T20:03:42.490Z,120.65
2019-05-11T20:06:13.104Z,82.47
2019-05-11T20:08:43.836Z,69.03
2019-05-11T20:11:14.136Z,67.97
2019-05-11T20:13:44.733Z,63.80
2019-05-11T20:16:15.041Z,61.75
2019-05-11T20:18:45.617Z,51.98
2019-05-11T20:21:22.145Z,47.90
2019-05-11T20:23:48.485Z,57.40
2019-05-11T20:26:19.221Z,47.40
2019-05-11T20:28:49.658Z,49.42
2019-05-11T20:31:21.780Z,54.20
2019-05-11T20:33:52.536Z,53.85
2019-05-11T20:36:22.919Z,45.70
2019-05-11T20:38:53.174Z,42.20
2019-05-11T20:41:23.826Z,49.33
2019-05-11T20:43:57.687Z,45.48
2019-05-11T20:46:28.158Z,46.65
2019-05-11T20:48:58.733Z,58.80
2019-05-11T20:51:36.621Z,49.98
2019-05-11T20:54:05.413Z,58.28
2019-05-11T20:56:35.738Z,52.33
2019-05-11T20:59:07.837Z,49.85
2019-05-11T21:01:38.754Z,53.17
2019-05-11T21:04:09.365Z,57.05
2019-05-11T21:06:39.942Z,53.48
2019-05-11T21:09:10.610Z,57.23
2019-05-11T21:11:41.390Z,64.42
2019-05-11T21:14:11.720Z,57.17
2019-05-11T21:16:42.317Z,54.75
2019-05-11T21:19:12.688Z,64.53
2019-05-11T21:21:50.165Z,66.65
2019-05-11T21:24:15.493Z,60.33
2019-05-11T21:26:47.940Z,61.65
2019-05-11T21:29:18.827Z,81.00
2019-05-11T21:31:49.085Z,74.53
2019-05-11T21:34:19.363Z,77.03
2019-05-11T21:36:49.594Z,75.17
2019-05-11T21:39:20.264Z,86.42
2019-05-11T21:41:51.027Z,94.47
2019-05-11T21:44:21.738Z,95.28
2019-05-11T21:46:52.139Z,89.13
2019-05-11T21:49:22.393Z,90.10
2019-05-11T21:52:04.056Z,92.57
2019-05-11T21:54:24.970Z,97.62
2019-05-11T21:56:57.414Z,100.97
2019-05-11T21:59:27.729Z,97.67
2019-05-11T22:01:59.647Z,86.45
2019-05-11T22:04:29.857Z,92.55
2019-05-11T22:07:00.099Z,90.55
2019-05-11T22:09:30.407Z,93.52
2019-05-11T22:12:00.645Z,90.57
2019-05-11T22:14:31.320Z,81.05
2019-05-11T22:17:02.546Z,89.28
2019-05-11T22:19:33.271Z,88.55
2019-05-11T22:22:17.320Z,88.92
2019-05-11T22:24:35.972Z,80.77
2019-05-11T22:27:08.019Z,74.50
2019-05-11T22:29:38.475Z,88.05
2019-05-11T22:32:08.793Z,79.62
2019-05-11T22:34:39.369Z,76.92
2019-05-11T22:37:10.023Z,84.40
2019-05-11T22:39:41.306Z,81.60
2019-05-11T22:42:13.749Z,80.20
2019-05-11T22:44:44.381Z,80.83
2019-05-11T22:47:14.685Z,83.62
2019-05-11T22:49:49.628Z,74.17
2019-05-11T22:52:18.032Z,74.35
2019-05-11T22:54:48.824Z,63.38
2019-05-11T22:57:19.464Z,70.92
2019-05-11T22:59:50.111Z,70.17
2019-05-11T23:02:20.392Z,81.87
2019-05-11T23:04:50.707Z,75.42
2019-05-11T23:07:20.928Z,72.37
2019-05-11T23:09:51.167Z,72.87
2019-05-11T23:12:21.390Z,76.22
2019-05-11T23:14:53.303Z,71.05
2019-05-11T23:17:23.516Z,70.45
2019-05-11T23:19:54.143Z,71.37
2019-05-11T23:22:24.449Z,70.42
2019-05-11T23:24:55.231Z,76.47
2019-05-11T23:27:25.518Z,78.10
2019-05-11T23:29:58.022Z,75.78
2019-05-11T23:32:28.078Z,72.85
2019-05-11T23:34:58.377Z,77.47
2019-05-11T23:37:29.000Z,74.72
2019-05-11T23:39:59.332Z,70.42
2019-05-11T23:42:30.963Z,72.05
2019-05-11T23:45:01.781Z,68.15
2019-05-11T23:47:32.105Z,70.12
2019-05-11T23:50:02.716Z,70.22
2019-05-11T23:52:32.937Z,68.67
2019-05-11T23:55:03.182Z,71.53
2019-05-11T23:57:33.398Z,71.22
